createdAt,value
2017-11-29T00:00:22.613Z,13.70
2017-11-29T00:01:22.576Z,14.20
2017-11-29T00:02:22.558Z,13.30
2017-11-29T00:03:22.494Z,13.50
2017-11-29T00:04:22.478Z,12.70
2017-11-29T00:05:22.413Z,12.90
2017-11-29T00:06:22.375Z,11.10
2017-11-29T00:07:22.341Z,11.40
2017-11-29T00:08:22.294Z,9.80
2017-11-29T00:09:22.253Z,10.50
2017-11-29T00:10:22.227Z,10.20
2017-11-29T00:11:22.186Z,10.30
2017-11-29T00:12:22.139Z,9.60
2017-11-29T00:13:22.094Z,8.70
2017-11-29T00:14:22.055Z,8.90
2017-11-29T00:15:22.010Z,8.90
2017-11-29T00:16:21.974Z,8.70
2017-11-29T00:17:21.951Z,9.30
2017-11-29T00:18:21.893Z,9.00
2017-11-29T00:19:21.851Z,9.20
2017-11-29T00:20:21.817Z,9.20
2017-11-29T00:21:21.799Z,9.60
2017-11-29T00:22:21.728Z,8.80
2017-11-29T00:23:21.695Z,8.50
2017-11-29T00:24:21.961Z,7.90
2017-11-29T00:25:21.614Z,8.50
2017-11-29T00:26:21.569Z,8.20
2017-11-29T00:27:21.535Z,9.20
2017-11-29T00:28:21.508Z,8.80
2017-11-29T00:29:21.469Z,8.50
2017-11-29T00:30:21.417Z,8.00
2017-11-29T00:31:21.370Z,9.20
2017-11-29T00:32:21.333Z,9.30
2017-11-29T00:33:21.320Z,8.40
2017-11-29T00:34:21.251Z,9.10
2017-11-29T00:35:21.213Z,8.30
2017-11-29T00:36:21.170Z,8.70
2017-11-29T00:37:21.150Z,8.80
2017-11-29T00:38:21.105Z,9.50
2017-11-29T00:39:21.060Z,8.60
2017-11-29T00:40:21.011Z,9.00
2017-11-29T00:41:20.980Z,8.90
2017-11-29T00:42:20.959Z,8.10
2017-11-29T00:43:20.913Z,9.30
2017-11-29T00:44:20.849Z,8.70
2017-11-29T00:45:20.813Z,9.20
2017-11-29T00:46:20.772Z,9.00
2017-11-29T00:47:20.735Z,9.70
2017-11-29T00:48:21.686Z,8.90
2017-11-29T00:49:20.654Z,10.10
2017-11-29T00:50:20.613Z,10.60
2017-11-29T00:51:21.189Z,9.70
2017-11-29T00:52:20.555Z,9.80
2017-11-29T00:53:20.500Z,9.10
2017-11-29T00:54:20.453Z,10.00
2017-11-29T00:55:20.417Z,9.80
2017-11-29T00:56:20.369Z,9.60
2017-11-29T00:57:20.332Z,10.50
2017-11-29T00:58:20.293Z,9.00
2017-11-29T00:59:20.247Z,9.60
2017-11-29T01:00:20.232Z,9.40
2017-11-29T01:01:20.173Z,9.60
2017-11-29T01:02:20.129Z,9.30
2017-11-29T01:03:20.093Z,9.70
2017-11-29T01:04:20.060Z,10.10
2017-11-29T01:05:20.036Z,10.30
2017-11-29T01:06:19.983Z,9.90
2017-11-29T01:07:19.953Z,10.00
2017-11-29T01:08:19.913Z,10.00
2017-11-29T01:09:19.847Z,9.60
2017-11-29T01:10:19.828Z,9.60
2017-11-29T01:11:19.774Z,9.00
2017-11-29T01:12:19.749Z,9.00
2017-11-29T01:13:19.693Z,10.00
2017-11-29T01:14:19.658Z,10.00
2017-11-29T01:15:19.641Z,10.20
2017-11-29T01:16:19.596Z,11.00
2017-11-29T01:17:19.538Z,10.90
2017-11-29T01:18:19.499Z,11.10
2017-11-29T01:19:19.465Z,10.30
2017-11-29T01:20:19.438Z,12.40
2017-11-29T01:21:19.378Z,11.60
2017-11-29T01:22:19.336Z,11.80
2017-11-29T01:23:19.758Z,11.40
2017-11-29T01:24:19.270Z,11.90
2017-11-29T01:25:19.239Z,12.40
2017-11-29T01:26:19.767Z,12.10
2017-11-29T01:27:19.144Z,13.20
2017-11-29T01:28:19.094Z,12.20
2017-11-29T01:29:19.073Z,13.00
2017-11-29T01:30:19.021Z,15.10
2017-11-29T01:31:18.975Z,14.90
2017-11-29T01:32:18.950Z,15.70
2017-11-29T01:33:18.904Z,16.60
2017-11-29T01:34:18.866Z,16.30
2017-11-29T01:35:18.818Z,15.70
2017-11-29T01:36:18.772Z,17.60
2017-11-29T01:37:18.759Z,17.90
2017-11-29T01:38:18.706Z,17.00
2017-11-29T01:39:18.654Z,17.50
2017-11-29T01:40:18.632Z,17.10
2017-11-29T01:41:18.580Z,18.00
2017-11-29T01:42:19.082Z,18.20
2017-11-29T01:43:18.533Z,18.10
2017-11-29T01:44:18.472Z,19.60
2017-11-29T01:45:18.414Z,18.90
2017-11-29T01:46:18.379Z,19.90
2017-11-29T01:47:18.375Z,19.00
2017-11-29T01:48:18.318Z,18.50
2017-11-29T01:49:18.257Z,17.80
2017-11-29T01:50:18.220Z,17.50
2017-11-29T01:51:18.182Z,18.80
2017-11-29T01:52:18.137Z,18.90
2017-11-29T01:53:18.109Z,18.70
2017-11-29T01:54:18.085Z,20.30
2017-11-29T01:55:18.024Z,19.00
2017-11-29T01:56:17.981Z,19.50
2017-11-29T01:57:17.944Z,19.60
2017-11-29T01:58:17.906Z,18.80
2017-11-29T01:59:17.871Z,19.20
2017-11-29T02:00:17.835Z,19.20
2017-11-29T02:01:17.782Z,19.80
2017-11-29T02:02:17.757Z,19.80
2017-11-29T02:03:17.700Z,20.50
2017-11-29T02:04:17.666Z,19.10
2017-11-29T02:05:17.625Z,19.80
2017-11-29T02:06:17.583Z,19.30
2017-11-29T02:07:17.563Z,19.40
2017-11-29T02:08:17.523Z,20.00
2017-11-29T02:09:17.464Z,19.70
2017-11-29T02:10:17.439Z,20.10
2017-11-29T02:11:17.398Z,20.20
2017-11-29T02:12:17.341Z,20.40
2017-11-29T02:13:17.300Z,19.60
2017-11-29T02:14:17.287Z,21.50
2017-11-29T02:15:17.220Z,20.80
2017-11-29T02:16:17.180Z,20.80
2017-11-29T02:17:17.137Z,20.50
2017-11-29T02:18:17.094Z,20.00
2017-11-29T02:19:17.063Z,20.50
2017-11-29T02:20:17.014Z,21.60
2017-11-29T02:21:17.014Z,20.60
2017-11-29T02:22:16.956Z,20.40
2017-11-29T02:23:16.901Z,21.40
2017-11-29T02:24:16.878Z,22.10
2017-11-29T02:25:16.838Z,22.60
2017-11-29T02:26:16.801Z,21.60
2017-11-29T02:27:16.749Z,21.60
2017-11-29T02:28:16.731Z,23.60
2017-11-29T02:29:16.661Z,22.80
2017-11-29T02:30:16.620Z,23.20
2017-11-29T02:31:16.579Z,22.00
2017-11-29T02:32:16.537Z,22.70
2017-11-29T02:33:16.505Z,23.30
2017-11-29T02:34:16.862Z,22.90
2017-11-29T02:35:16.441Z,22.80
2017-11-29T02:36:16.374Z,23.00
2017-11-29T02:37:16.876Z,23.90
2017-11-29T02:38:16.296Z,23.80
2017-11-29T02:39:16.256Z,24.00
2017-11-29T02:40:16.215Z,23.80
2017-11-29T02:41:16.177Z,24.60
2017-11-29T02:42:16.134Z,24.10
2017-11-29T02:43:16.096Z,24.80
2017-11-29T02:44:16.166Z,24.10
2017-11-29T02:45:16.035Z,24.70
2017-11-29T02:46:15.981Z,25.10
2017-11-29T02:47:15.926Z,24.30
2017-11-29T02:48:15.894Z,24.70
2017-11-29T02:49:15.850Z,24.10
2017-11-29T02:50:15.812Z,24.40
2017-11-29T02:51:15.769Z,25.60
2017-11-29T02:52:15.731Z,25.50
2017-11-29T02:53:15.689Z,25.50
2017-11-29T02:54:15.649Z,26.50
2017-11-29T02:55:15.634Z,26.70
2017-11-29T02:56:15.595Z,26.20
2017-11-29T02:57:15.528Z,26.40
2017-11-29T02:58:15.507Z,25.10
2017-11-29T02:59:15.467Z,25.50
2017-11-29T03:00:15.411Z,27.20
2017-11-29T03:01:15.369Z,26.80
2017-11-29T03:02:15.350Z,24.80
2017-11-29T03:03:15.285Z,25.90
2017-11-29T03:04:15.248Z,27.40
2017-11-29T03:05:15.227Z,26.50
2017-11-29T03:06:15.163Z,26.00
2017-11-29T03:07:15.143Z,26.10
2017-11-29T03:08:15.127Z,27.80
2017-11-29T03:09:15.044Z,27.70
2017-11-29T03:10:15.046Z,27.80
2017-11-29T03:11:14.959Z,29.60
2017-11-29T03:12:14.953Z,29.00
2017-11-29T03:13:14.901Z,30.40
2017-11-29T03:14:14.855Z,30.80
2017-11-29T03:15:14.798Z,29.50
2017-11-29T03:16:14.766Z,30.20
2017-11-29T03:17:14.729Z,32.00
2017-11-29T03:18:14.682Z,31.00
2017-11-29T03:19:14.643Z,31.40
2017-11-29T03:20:14.601Z,31.40
2017-11-29T03:21:14.578Z,32.60
2017-11-29T03:22:14.591Z,32.10
2017-11-29T03:23:14.490Z,32.30
2017-11-29T03:24:14.440Z,31.40
2017-11-29T03:25:14.397Z,31.90
2017-11-29T03:26:14.362Z,32.50
2017-11-29T03:27:14.340Z,31.40
2017-11-29T03:28:14.324Z,32.00
2017-11-29T03:29:14.252Z,30.20
2017-11-29T03:30:14.236Z,29.00
2017-11-29T03:31:14.167Z,31.60
2017-11-29T03:32:14.124Z,28.40
2017-11-29T03:33:14.101Z,30.60
2017-11-29T03:34:14.081Z,29.00
2017-11-29T03:35:14.008Z,29.60
2017-11-29T03:36:13.959Z,30.40
2017-11-29T03:37:13.927Z,30.00
2017-11-29T03:38:13.880Z,28.50
2017-11-29T03:39:13.839Z,29.60
2017-11-29T03:40:13.795Z,29.60
2017-11-29T03:41:13.761Z,29.40
2017-11-29T03:42:13.749Z,30.00
2017-11-29T03:43:13.685Z,28.70
2017-11-29T03:44:13.641Z,30.50
2017-11-29T03:45:13.596Z,32.40
2017-11-29T03:46:13.609Z,32.90
2017-11-29T03:47:13.546Z,32.90
2017-11-29T03:48:13.479Z,34.70
2017-11-29T03:49:13.437Z,33.30
2017-11-29T03:50:13.393Z,32.70
2017-11-29T03:51:13.397Z,30.20
2017-11-29T03:52:13.324Z,32.00
2017-11-29T03:53:13.346Z,30.90
2017-11-29T03:54:13.261Z,30.00
2017-11-29T03:55:13.220Z,31.30
2017-11-29T03:56:13.219Z,30.30
2017-11-29T03:57:13.157Z,29.80
2017-11-29T03:58:13.091Z,29.70
2017-11-29T03:59:13.080Z,31.80
2017-11-29T04:00:13.004Z,27.90
2017-11-29T04:01:12.963Z,28.10
2017-11-29T04:02:12.943Z,27.70
2017-11-29T04:03:12.875Z,28.10
2017-11-29T04:04:12.869Z,26.50
2017-11-29T04:05:12.794Z,29.20
2017-11-29T04:06:12.765Z,27.60
2017-11-29T04:07:12.734Z,29.30
2017-11-29T04:08:12.669Z,29.80
2017-11-29T04:09:12.638Z,29.10
2017-11-29T04:10:12.611Z,30.10
2017-11-29T04:11:12.554Z,31.60
2017-11-29T04:12:12.528Z,31.40
2017-11-29T04:13:12.475Z,32.00
2017-11-29T04:14:12.476Z,31.10
2017-11-29T04:15:12.424Z,29.60
2017-11-29T04:16:12.359Z,32.30
2017-11-29T04:17:12.310Z,32.20
2017-11-29T04:18:12.296Z,29.20
2017-11-29T04:19:12.251Z,31.40
2017-11-29T04:20:12.188Z,30.70
2017-11-29T04:21:12.168Z,31.10
2017-11-29T04:22:12.120Z,31.30
2017-11-29T04:23:12.107Z,29.50
2017-11-29T04:24:12.111Z,30.20
2017-11-29T04:25:12.032Z,29.90
2017-11-29T04:26:11.989Z,29.60
2017-11-29T04:27:11.946Z,30.30
2017-11-29T04:28:11.870Z,31.50
2017-11-29T04:29:11.828Z,31.60
2017-11-29T04:30:11.811Z,32.50
2017-11-29T04:31:11.753Z,30.20
2017-11-29T04:32:11.730Z,29.50
2017-11-29T04:33:11.690Z,31.10
2017-11-29T04:34:11.628Z,29.20
2017-11-29T04:35:11.590Z,30.70
2017-11-29T04:36:11.549Z,30.90
2017-11-29T04:37:11.536Z,29.30
2017-11-29T04:38:11.479Z,30.70
2017-11-29T04:39:11.473Z,29.10
2017-11-29T04:40:11.384Z,31.90
2017-11-29T04:41:11.369Z,32.30
2017-11-29T04:42:11.347Z,33.00
2017-11-29T04:43:11.288Z,31.10
2017-11-29T04:44:13.176Z,30.20
2017-11-29T04:45:11.185Z,31.20
2017-11-29T04:46:11.147Z,31.00
2017-11-29T04:47:11.120Z,29.20
2017-11-29T04:48:11.066Z,30.40
2017-11-29T04:49:11.061Z,30.10
2017-11-29T04:50:10.989Z,30.70
2017-11-29T04:51:10.984Z,31.70
2017-11-29T04:52:10.913Z,31.70
2017-11-29T04:53:10.870Z,30.90
2017-11-29T04:54:10.846Z,30.10
2017-11-29T04:55:10.777Z,31.70
2017-11-29T04:56:10.796Z,30.60
2017-11-29T04:57:11.054Z,30.00
2017-11-29T04:58:10.675Z,31.90
2017-11-29T04:59:10.629Z,33.70
2017-11-29T05:00:10.647Z,33.70
2017-11-29T05:01:10.538Z,32.20
2017-11-29T05:02:10.503Z,32.80
2017-11-29T05:03:10.472Z,32.90
2017-11-29T05:04:10.449Z,31.40
2017-11-29T05:05:10.379Z,32.20
2017-11-29T05:06:10.353Z,32.60
2017-11-29T05:07:10.358Z,33.00
2017-11-29T05:08:10.269Z,33.60
2017-11-29T05:09:10.217Z,32.10
2017-11-29T05:10:10.172Z,32.80
2017-11-29T05:11:10.138Z,33.30
2017-11-29T05:12:10.105Z,32.80
2017-11-29T05:13:10.091Z,30.40
2017-11-29T05:14:10.011Z,31.90
2017-11-29T05:15:09.976Z,30.80
2017-11-29T05:16:09.932Z,28.70
2017-11-29T05:17:09.898Z,29.40
2017-11-29T05:18:09.850Z,28.40
2017-11-29T05:19:09.814Z,28.40
2017-11-29T05:20:09.781Z,29.80
2017-11-29T05:21:09.734Z,29.60
2017-11-29T05:22:09.754Z,30.30
2017-11-29T05:23:09.666Z,29.60
2017-11-29T05:24:09.640Z,28.80
2017-11-29T05:25:09.593Z,29.70
2017-11-29T05:26:09.542Z,30.00
2017-11-29T05:27:09.504Z,28.10
2017-11-29T05:28:09.446Z,29.00
2017-11-29T05:29:09.426Z,30.60
2017-11-29T05:30:09.411Z,29.30
2017-11-29T05:31:09.355Z,30.20
2017-11-29T05:32:09.292Z,29.90
2017-11-29T05:33:09.243Z,30.20
2017-11-29T05:34:09.206Z,30.80
2017-11-29T05:35:09.164Z,30.30
2017-11-29T05:36:09.124Z,29.50
2017-11-29T05:37:09.081Z,28.80
2017-11-29T05:38:09.045Z,29.00
2017-11-29T05:39:09.005Z,29.30
2017-11-29T05:40:08.964Z,29.80
2017-11-29T05:41:08.923Z,28.90
2017-11-29T05:42:08.885Z,28.80
2017-11-29T05:43:08.842Z,30.00
2017-11-29T05:44:08.805Z,29.80
2017-11-29T05:45:08.763Z,28.20
2017-11-29T05:46:08.725Z,28.70
2017-11-29T05:47:08.679Z,30.70
2017-11-29T05:48:08.639Z,29.70
2017-11-29T05:49:08.604Z,30.90
2017-11-29T05:50:08.566Z,31.30
2017-11-29T05:51:08.519Z,30.70
2017-11-29T05:52:08.482Z,29.90
2017-11-29T05:53:08.437Z,30.40
2017-11-29T05:54:08.397Z,31.50
2017-11-29T05:55:08.357Z,32.40
2017-11-29T05:56:08.316Z,30.20
2017-11-29T05:57:08.274Z,31.60
2017-11-29T05:58:08.255Z,29.50
2017-11-29T05:59:08.197Z,31.00
2017-11-29T06:00:08.155Z,30.80
2017-11-29T06:01:08.113Z,31.20
2017-11-29T06:02:08.458Z,31.00
2017-11-29T06:03:08.034Z,30.70
2017-11-29T06:04:07.996Z,29.60
2017-11-29T06:05:07.951Z,31.50
2017-11-29T06:06:07.911Z,30.20
2017-11-29T06:07:07.874Z,29.70
2017-11-29T06:08:07.830Z,31.20
2017-11-29T06:09:07.965Z,32.10
2017-11-29T06:10:07.749Z,31.00
2017-11-29T06:11:07.707Z,30.80
2017-11-29T06:12:07.668Z,32.70
2017-11-29T06:13:07.629Z,31.90
2017-11-29T06:14:07.589Z,31.00
2017-11-29T06:15:07.548Z,30.20
2017-11-29T06:16:07.506Z,31.00
2017-11-29T06:17:07.468Z,31.60
2017-11-29T06:18:07.427Z,30.40
2017-11-29T06:19:07.387Z,31.10
2017-11-29T06:20:07.346Z,31.50
2017-11-29T06:21:07.307Z,29.90
2017-11-29T06:22:07.267Z,30.10
2017-11-29T06:23:07.229Z,31.40
2017-11-29T06:24:07.187Z,31.40
2017-11-29T06:25:07.143Z,29.80
2017-11-29T06:26:07.102Z,31.80
2017-11-29T06:27:07.064Z,32.90
2017-11-29T06:28:07.021Z,31.00
2017-11-29T06:29:06.981Z,33.00
2017-11-29T06:30:06.943Z,31.60
2017-11-29T06:31:06.901Z,31.20
2017-11-29T06:32:06.860Z,33.10
2017-11-29T06:33:06.825Z,33.80
2017-11-29T06:34:06.780Z,31.80
2017-11-29T06:35:06.737Z,33.90
2017-11-29T06:36:06.704Z,34.70
2017-11-29T06:37:06.659Z,35.80
2017-11-29T06:38:06.618Z,33.90
2017-11-29T06:39:06.575Z,34.60
2017-11-29T06:40:06.537Z,36.00
2017-11-29T06:41:06.494Z,33.70
2017-11-29T06:42:06.454Z,33.60
2017-11-29T06:43:06.414Z,33.80
2017-11-29T06:44:06.373Z,34.20
2017-11-29T06:45:06.332Z,36.00
2017-11-29T06:46:06.296Z,35.40
2017-11-29T06:47:06.265Z,33.30
2017-11-29T06:48:06.218Z,34.30
2017-11-29T06:49:06.170Z,33.00
2017-11-29T06:50:06.129Z,35.00
2017-11-29T06:51:06.105Z,34.30
2017-11-29T06:52:06.049Z,34.60
2017-11-29T06:53:06.008Z,35.20
2017-11-29T06:54:05.966Z,32.80
2017-11-29T06:55:05.924Z,32.50
2017-11-29T06:56:05.885Z,33.80
2017-11-29T06:57:05.844Z,33.90
2017-11-29T06:58:05.805Z,31.30
2017-11-29T06:59:05.763Z,34.50
2017-11-29T07:00:05.729Z,34.40
2017-11-29T07:01:05.681Z,36.00
2017-11-29T07:02:05.997Z,36.10
2017-11-29T07:03:05.600Z,34.00
2017-11-29T07:04:05.559Z,35.00
2017-11-29T07:05:05.519Z,30.80
2017-11-29T07:06:05.477Z,32.20
2017-11-29T07:07:05.437Z,33.00
2017-11-29T07:08:05.394Z,33.80
2017-11-29T07:09:05.355Z,32.10
2017-11-29T07:10:05.317Z,32.60
2017-11-29T07:11:05.275Z,34.60
2017-11-29T07:12:05.233Z,32.70
2017-11-29T07:13:05.193Z,36.80
2017-11-29T07:14:05.153Z,36.50
2017-11-29T07:15:05.338Z,36.00
2017-11-29T07:16:05.069Z,35.50
2017-11-29T07:17:05.029Z,36.60
2017-11-29T07:18:04.988Z,37.20
2017-11-29T07:19:04.951Z,37.00
2017-11-29T07:20:04.905Z,38.10
2017-11-29T07:21:04.864Z,34.80
2017-11-29T07:22:04.844Z,35.50
2017-11-29T07:23:04.783Z,37.30
2017-11-29T07:24:04.740Z,36.30
2017-11-29T07:25:04.702Z,36.50
2017-11-29T07:26:04.660Z,35.10
2017-11-29T07:27:04.621Z,36.30
2017-11-29T07:28:04.578Z,34.00
2017-11-29T07:29:04.537Z,34.20
2017-11-29T07:30:04.498Z,33.70
2017-11-29T07:31:04.454Z,33.00
2017-11-29T07:32:04.413Z,34.40
2017-11-29T07:33:04.373Z,33.50
2017-11-29T07:34:04.330Z,32.90
2017-11-29T07:35:04.291Z,32.90
2017-11-29T07:36:04.249Z,33.70
2017-11-29T07:37:04.217Z,34.20
2017-11-29T07:38:04.169Z,31.90
2017-11-29T07:39:04.129Z,33.90
2017-11-29T07:40:04.084Z,31.50
2017-11-29T07:41:04.038Z,31.40
2017-11-29T07:42:04.004Z,31.40
2017-11-29T07:43:03.962Z,32.70
2017-11-29T07:44:03.920Z,33.60
2017-11-29T07:45:03.880Z,30.80
2017-11-29T07:46:03.838Z,29.80
2017-11-29T07:47:03.801Z,30.40
2017-11-29T07:48:03.755Z,31.20
2017-11-29T07:49:03.715Z,30.80
2017-11-29T07:50:03.675Z,30.10
2017-11-29T07:51:03.633Z,28.90
2017-11-29T07:52:03.591Z,28.70
2017-11-29T07:53:03.551Z,30.20
2017-11-29T07:54:03.508Z,29.50
2017-11-29T07:55:03.469Z,29.60
2017-11-29T07:56:03.426Z,30.30
2017-11-29T07:57:03.391Z,28.70
2017-11-29T07:58:03.345Z,27.90
2017-11-29T07:59:03.303Z,29.60
2017-11-29T08:00:03.264Z,29.00
2017-11-29T08:01:03.221Z,27.90
2017-11-29T08:02:03.181Z,28.90
2017-11-29T08:03:03.141Z,28.60
2017-11-29T08:04:03.118Z,27.30
2017-11-29T08:05:03.057Z,24.70
2017-11-29T08:06:03.018Z,23.80
2017-11-29T08:07:02.983Z,24.80
2017-11-29T08:08:02.938Z,20.90
2017-11-29T08:09:02.897Z,21.50
2017-11-29T08:10:02.858Z,20.60
2017-11-29T08:11:02.819Z,21.00
2017-11-29T08:12:02.779Z,22.00
2017-11-29T08:13:02.735Z,20.90
2017-11-29T08:14:02.699Z,19.90
2017-11-29T08:15:02.662Z,19.40
2017-11-29T08:16:02.625Z,19.50
2017-11-29T08:17:02.588Z,19.10
2017-11-29T08:18:02.550Z,17.40
2017-11-29T08:19:02.516Z,18.60
2017-11-29T08:20:02.476Z,16.70
2017-11-29T08:21:02.450Z,17.30
2017-11-29T08:22:02.409Z,16.40
2017-11-29T08:23:02.372Z,15.50
2017-11-29T08:24:02.339Z,15.90
2017-11-29T08:25:02.309Z,17.10
2017-11-29T08:26:02.269Z,16.80
2017-11-29T08:27:02.246Z,15.70
2017-11-29T08:28:02.203Z,15.90
2017-11-29T08:29:02.172Z,15.70
2017-11-29T08:30:02.140Z,15.20
2017-11-29T08:31:02.102Z,14.80
2017-11-29T08:32:02.074Z,15.10
2017-11-29T08:33:02.044Z,14.80
2017-11-29T08:34:02.014Z,15.40
2017-11-29T08:35:01.980Z,14.10
2017-11-29T08:36:01.968Z,14.20
2017-11-29T08:37:01.919Z,14.60
2017-11-29T08:38:01.888Z,14.30
2017-11-29T08:39:01.859Z,13.80
2017-11-29T08:40:01.829Z,14.20
2017-11-29T08:41:01.797Z,14.20
2017-11-29T08:42:01.768Z,14.00
2017-11-29T08:43:01.739Z,14.10
2017-11-29T08:44:01.712Z,13.50
2017-11-29T08:45:01.687Z,14.20
2017-11-29T08:46:01.653Z,13.30
2017-11-29T08:47:01.624Z,13.20
2017-11-29T08:48:01.595Z,13.90
2017-11-29T08:49:01.566Z,15.10
2017-11-29T08:50:01.539Z,15.20
2017-11-29T08:51:01.518Z,16.20
2017-11-29T08:52:01.481Z,16.10
2017-11-29T08:53:01.452Z,17.20
2017-11-29T08:54:01.428Z,16.40
2017-11-29T08:55:01.398Z,15.40
2017-11-29T08:56:01.386Z,15.70
2017-11-29T08:57:01.341Z,16.60
2017-11-29T08:58:01.320Z,16.50
2017-11-29T08:59:01.284Z,16.60
2017-11-29T09:00:01.257Z,16.80
2017-11-29T09:01:01.231Z,15.90
2017-11-29T09:02:01.198Z,15.90
2017-11-29T09:03:01.173Z,15.00
2017-11-29T09:04:01.142Z,14.60
2017-11-29T09:05:01.114Z,16.50
2017-11-29T09:06:01.086Z,14.90
2017-11-29T09:07:01.058Z,15.70
2017-11-29T09:08:01.030Z,14.80
2017-11-29T09:09:01.008Z,15.20
2017-11-29T09:10:00.976Z,14.50
2017-11-29T09:11:00.948Z,14.70
2017-11-29T09:12:00.919Z,15.50
2017-11-29T09:13:00.892Z,15.00
2017-11-29T09:14:00.864Z,14.50
2017-11-29T09:15:00.838Z,14.20
2017-11-29T09:16:00.812Z,14.40
2017-11-29T09:17:00.784Z,14.00
2017-11-29T09:18:00.757Z,13.40
2017-11-29T09:19:00.731Z,13.60
2017-11-29T09:20:00.708Z,14.20
2017-11-29T09:21:00.676Z,13.90
2017-11-29T09:22:00.651Z,13.80
2017-11-29T09:23:00.624Z,13.00
2017-11-29T09:24:00.600Z,12.80
2017-11-29T09:25:00.612Z,12.40
2017-11-29T09:26:00.549Z,11.40
2017-11-29T09:27:00.528Z,11.90
2017-11-29T09:28:00.493Z,12.50
2017-11-29T09:29:00.471Z,11.60
2017-11-29T09:30:00.445Z,11.20
2017-11-29T09:31:00.421Z,11.10
2017-11-29T09:32:00.395Z,10.10
2017-11-29T09:33:00.377Z,10.90
2017-11-29T09:34:00.346Z,11.40
2017-11-29T09:35:00.321Z,10.60
2017-11-29T09:36:00.300Z,10.30
2017-11-29T09:37:00.275Z,10.40
2017-11-29T09:38:00.251Z,11.10
2017-11-29T09:39:00.227Z,10.10
2017-11-29T09:40:00.204Z,9.30
2017-11-29T09:41:00.181Z,8.60
2017-11-29T09:42:00.156Z,9.40
2017-11-29T09:43:00.137Z,9.10
2017-11-29T09:44:00.110Z,8.70
2017-11-29T09:45:00.089Z,8.70
2017-11-29T09:46:00.075Z,9.50
2017-11-29T09:47:00.044Z,8.90
2017-11-29T09:48:00.028Z,9.30
2017-11-29T09:49:00.004Z,9.50
2017-11-29T09:49:59.980Z,8.80
2017-11-29T09:50:59.959Z,9.30
2017-11-29T09:51:59.935Z,8.70
2017-11-29T09:52:59.914Z,8.60
2017-11-29T09:53:59.893Z,8.60
2017-11-29T09:54:59.880Z,9.20
2017-11-29T09:55:59.849Z,9.40
2017-11-29T09:56:59.830Z,8.20
2017-11-29T09:57:59.814Z,9.30
2017-11-29T09:58:59.792Z,8.50
2017-11-29T09:59:59.765Z,8.80
2017-11-29T10:00:59.743Z,8.60
2017-11-29T10:01:59.723Z,8.40
2017-11-29T10:02:59.705Z,8.70
2017-11-29T10:03:59.686Z,8.30
2017-11-29T10:04:59.661Z,7.80
2017-11-29T10:05:59.642Z,8.10
2017-11-29T10:06:59.627Z,7.70
2017-11-29T10:07:59.600Z,6.90
2017-11-29T10:08:59.589Z,6.80
2017-11-29T10:09:59.560Z,7.70
2017-11-29T10:10:59.549Z,7.90
2017-11-29T10:11:59.521Z,7.20
2017-11-29T10:12:59.500Z,7.10
2017-11-29T10:13:59.477Z,6.90
2017-11-29T10:14:59.456Z,6.60
2017-11-29T10:15:59.570Z,6.10
2017-11-29T10:16:59.446Z,7.30
2017-11-29T10:17:59.555Z,6.20
2017-11-29T10:18:59.378Z,6.50
2017-11-29T10:19:59.350Z,7.20
2017-11-29T10:20:59.329Z,7.40
2017-11-29T10:21:59.315Z,7.00
2017-11-29T10:22:59.304Z,7.30
2017-11-29T10:23:59.286Z,7.90
2017-11-29T10:24:59.253Z,8.40
2017-11-29T10:25:59.233Z,8.60
2017-11-29T10:26:59.214Z,8.90
2017-11-29T10:27:59.187Z,8.70
2017-11-29T10:28:59.171Z,8.30
2017-11-29T10:29:59.243Z,8.20
2017-11-29T10:30:59.703Z,8.60
2017-11-29T10:31:59.857Z,8.30
2017-11-29T10:32:59.087Z,8.40
2017-11-29T10:33:59.075Z,7.90
2017-11-29T10:34:59.046Z,8.00
2017-11-29T10:35:59.026Z,7.60
2017-11-29T10:36:59.012Z,7.90
2017-11-29T10:37:58.982Z,7.80
2017-11-29T10:38:58.956Z,8.60
2017-11-29T10:39:58.937Z,7.90
2017-11-29T10:40:58.915Z,7.70
2017-11-29T10:41:58.915Z,8.40
2017-11-29T10:42:58.881Z,7.80
2017-11-29T10:43:58.861Z,7.50
2017-11-29T10:44:58.841Z,7.90
2017-11-29T10:45:58.817Z,8.20
2017-11-29T10:46:58.782Z,8.10
2017-11-29T10:47:58.759Z,7.30
2017-11-29T10:48:58.748Z,7.70
2017-11-29T10:49:58.724Z,7.80
2017-11-29T10:50:58.697Z,7.20
2017-11-29T10:51:58.667Z,7.60
2017-11-29T10:52:58.648Z,7.70
2017-11-29T10:53:58.619Z,6.70
2017-11-29T10:54:58.603Z,7.80
2017-11-29T10:55:58.576Z,8.00
2017-11-29T10:56:58.588Z,7.10
2017-11-29T10:57:58.530Z,7.20
2017-11-29T10:58:58.523Z,7.30
2017-11-29T10:59:58.493Z,7.00
2017-11-29T11:00:58.459Z,6.90
2017-11-29T11:01:58.450Z,6.60
2017-11-29T11:02:58.410Z,6.80
2017-11-29T11:03:58.401Z,6.10
2017-11-29T11:04:58.384Z,6.40
2017-11-29T11:05:58.364Z,6.60
2017-11-29T11:06:58.373Z,6.80
2017-11-29T11:07:58.322Z,6.90
2017-11-29T11:08:58.283Z,6.80
2017-11-29T11:09:58.276Z,6.10
2017-11-29T11:10:58.222Z,6.10
2017-11-29T11:11:58.209Z,6.00
2017-11-29T11:12:58.173Z,6.00
2017-11-29T11:13:58.162Z,6.30
2017-11-29T11:14:58.170Z,7.00
2017-11-29T11:15:58.123Z,7.70
2017-11-29T11:16:58.079Z,6.40
2017-11-29T11:17:58.056Z,6.40
2017-11-29T11:18:58.045Z,8.60
2017-11-29T11:19:58.025Z,8.60
2017-11-29T11:20:57.982Z,6.10
2017-11-29T11:21:57.956Z,6.40
2017-11-29T11:22:57.933Z,6.10
2017-11-29T11:23:57.906Z,10.90
2017-11-29T11:24:57.889Z,11.90
2017-11-29T11:25:57.990Z,8.80
2017-11-29T11:26:57.830Z,11.50
2017-11-29T11:27:57.802Z,7.50
2017-11-29T11:28:57.818Z,12.10
2017-11-29T11:29:57.773Z,7.50
2017-11-29T11:30:57.725Z,8.10
2017-11-29T11:31:57.702Z,11.30
2017-11-29T11:32:57.689Z,6.40
2017-11-29T11:33:57.651Z,8.40
2017-11-29T11:34:57.642Z,8.90
2017-11-29T11:35:57.625Z,7.30
2017-11-29T11:36:57.593Z,5.20
2017-11-29T11:37:57.573Z,5.30
2017-11-29T11:38:57.548Z,5.90
2017-11-29T11:39:57.518Z,6.10
2017-11-29T11:40:57.492Z,6.00
2017-11-29T11:41:57.480Z,5.50
2017-11-29T11:42:57.441Z,5.90
2017-11-29T11:43:57.415Z,5.80
2017-11-29T11:44:57.389Z,5.60
2017-11-29T11:45:57.367Z,6.20
2017-11-29T11:46:57.336Z,6.30
2017-11-29T11:47:57.307Z,6.30
2017-11-29T11:48:57.278Z,6.00
2017-11-29T11:49:57.250Z,5.80
2017-11-29T11:50:57.222Z,6.20
2017-11-29T11:51:57.191Z,6.70
2017-11-29T11:52:57.162Z,6.50
2017-11-29T11:53:57.133Z,6.50
2017-11-29T11:54:57.102Z,6.30
2017-11-29T11:55:57.071Z,6.70
2017-11-29T11:56:57.039Z,6.80
2017-11-29T11:57:57.012Z,5.80
2017-11-29T11:58:56.980Z,6.30
2017-11-29T11:59:56.943Z,5.90
2017-11-29T12:00:56.917Z,6.00
2017-11-29T12:01:56.886Z,5.50
2017-11-29T12:02:56.963Z,6.40
2017-11-29T12:03:56.826Z,5.80
2017-11-29T12:04:56.797Z,5.30
2017-11-29T12:05:56.768Z,5.50
2017-11-29T12:06:56.738Z,5.40
2017-11-29T12:07:56.708Z,5.40
2017-11-29T12:08:56.680Z,5.70
2017-11-29T12:09:56.655Z,5.70
2017-11-29T12:10:56.623Z,5.50
2017-11-29T12:11:56.594Z,5.10
2017-11-29T12:12:56.566Z,6.20
2017-11-29T12:13:56.536Z,5.90
2017-11-29T12:14:56.510Z,5.80
2017-11-29T12:15:56.483Z,6.00
2017-11-29T12:16:56.454Z,6.00
2017-11-29T12:17:56.426Z,6.40
2017-11-29T12:18:56.402Z,5.60
2017-11-29T12:19:56.372Z,6.10
2017-11-29T12:20:56.350Z,6.40
2017-11-29T12:21:56.316Z,6.00
2017-11-29T12:22:56.288Z,5.70
2017-11-29T12:23:56.257Z,6.10
2017-11-29T12:24:56.228Z,6.00
2017-11-29T12:25:56.199Z,5.90
2017-11-29T12:26:56.166Z,6.10
2017-11-29T12:27:56.137Z,6.40
2017-11-29T12:28:56.105Z,6.00
2017-11-29T12:29:56.075Z,6.10
2017-11-29T12:30:56.045Z,6.50
2017-11-29T12:31:56.013Z,6.20
2017-11-29T12:32:56.608Z,6.00
2017-11-29T12:33:55.949Z,6.10
2017-11-29T12:34:55.917Z,6.60
2017-11-29T12:35:55.885Z,6.20
2017-11-29T12:36:55.854Z,5.80
2017-11-29T12:37:55.819Z,5.70
2017-11-29T12:38:55.790Z,5.60
2017-11-29T12:39:55.750Z,6.10
2017-11-29T12:40:55.725Z,6.20
2017-11-29T12:41:55.685Z,5.90
2017-11-29T12:42:55.656Z,5.50
2017-11-29T12:43:55.618Z,6.90
2017-11-29T12:44:55.581Z,6.30
2017-11-29T12:45:55.550Z,6.00
2017-11-29T12:46:55.515Z,6.20
2017-11-29T12:47:55.481Z,5.80
2017-11-29T12:48:55.448Z,5.90
2017-11-29T12:49:55.964Z,6.10
2017-11-29T12:50:55.377Z,6.10
2017-11-29T12:51:55.342Z,7.70
2017-11-29T12:52:55.307Z,7.70
2017-11-29T12:53:55.276Z,7.20
2017-11-29T12:54:55.237Z,6.70
2017-11-29T12:55:55.203Z,8.40
2017-11-29T12:56:55.167Z,7.70
2017-11-29T12:57:55.132Z,8.30
2017-11-29T12:58:55.091Z,7.70
2017-11-29T12:59:55.766Z,8.70